Time;durP1;ratioP1;P1;durP2;ratioP2;P2;SDS_P1;SDS_P2;PMS_P1;PMS_P2;Temp;Humidity;BMP_temperature;BMP_pressure;BME280_temperature;BME280_humidity;BME280_pressure;Samples;Min_cycle;Max_cycle;Signal;HPM_P1;HPM_P2
2021/10/26 00:01:29;;;;;;;4.18;1.77;;;;;;;27.74;32.00;101617.81;4150589;28;20559;-66
2021/10/26 00:03:32;;;;;;;4.10;1.33;;;;;;;27.96;32.34;101649.06;4150250;28;20042;-62
2021/10/26 00:05:35;;;;;;;3.85;1.60;;;;;;;28.02;32.26;101662.00;4150269;28;20041;-66
2021/10/26 00:07:37;;;;;;;4.47;1.75;;;;;;;27.80;32.13;101613.66;4150447;28;20052;-59
2021/10/26 00:09:39;;;;;;;3.53;1.45;;;;;;;27.86;31.86;101632.00;4150088;28;20045;-68
2021/10/26 00:11:42;;;;;;;3.60;1.60;;;;;;;28.09;32.05;101670.41;4150336;28;20046;-64
2021/10/26 00:13:44;;;;;;;3.92;1.50;;;;;;;27.83;32.09;101626.91;4150351;28;20105;-63
2021/10/26 00:15:47;;;;;;;4.30;1.42;;;;;;;28.10;31.83;101664.00;4150410;28;20553;-64
2021/10/26 00:17:49;;;;;;;3.45;1.40;;;;;;;27.87;32.24;101637.25;4148232;28;20065;-65
2021/10/26 00:19:52;;;;;;;4.70;1.60;;;;;;;27.99;32.02;101653.31;4147610;28;20054;-70
2021/10/26 00:21:54;;;;;;;3.35;1.50;;;;;;;27.82;32.05;101623.34;4146630;28;20050;-63
2021/10/26 00:23:56;;;;;;;4.78;1.50;;;;;;;28.07;31.99;101664.31;4147802;28;20099;-67
2021/10/26 00:25:58;;;;;;;4.80;1.70;;;;;;;28.15;31.99;101675.22;4144273;28;20056;-63
2021/10/26 00:28:01;;;;;;;4.30;1.60;;;;;;;27.88;31.81;101638.13;4147860;28;20122;-61
2021/10/26 00:30:04;;;;;;;4.35;1.60;;;;;;;28.16;31.89;101681.50;4147610;28;20042;-63
2021/10/26 00:32:07;;;;;;;3.17;1.30;;;;;;;28.14;32.01;101684.34;4147597;28;20046;-63
2021/10/26 00:34:09;;;;;;;3.40;1.55;;;;;;;27.97;31.76;101664.28;4147606;28;20518;-59
2021/10/26 00:36:11;;;;;;;3.85;1.40;;;;;;;27.98;31.79;101657.88;4147377;28;20055;-60
2021/10/26 00:38:13;;;;;;;3.25;1.30;;;;;;;28.10;31.69;101682.09;4147593;28;20101;-65
2021/10/26 00:40:15;;;;;;;4.93;1.65;;;;;;;28.01;32.11;101668.41;4147377;28;20053;-66
2021/10/26 00:42:17;;;;;;;3.80;1.35;;;;;;;28.11;32.05;101683.78;4147555;28;20468;-63
2021/10/26 00:44:20;;;;;;;3.25;1.20;;;;;;;28.18;31.90;101699.28;4147656;28;20041;-67
2021/10/26 00:46:36;;;;;;;3.28;1.38;;;;;;;28.04;31.66;101669.94;4147175;28;20665;-68
2021/10/26 00:48:38;;;;;;;3.47;1.13;;;;;;;28.10;31.81;101684.78;4131188;28;20046;-69
2021/10/26 00:50:41;;;;;;;2.85;1.20;;;;;;;27.92;31.73;101652.19;4139713;28;20037;-70
2021/10/26 00:52:45;;;;;;;3.13;1.50;;;;;;;28.14;31.77;101695.16;4147396;28;20042;-63
2021/10/26 00:54:47;;;;;;;3.65;1.20;;;;;;;28.18;31.75;101712.78;4147349;28;20053;-70
2021/10/26 00:56:53;;;;;;;3.72;1.40;;;;;;;28.03;31.95;101670.94;4146461;28;20046;-65
2021/10/26 00:58:57;;;;;;;3.80;1.45;;;;;;;28.06;31.79;101684.22;4147242;28;20049;-64
2021/10/26 01:00:59;;;;;;;4.25;1.50;;;;;;;27.96;31.49;101664.41;4147023;28;20060;-64
2021/10/26 01:03:01;;;;;;;3.17;1.20;;;;;;;28.19;31.75;101702.81;4147251;28;20409;-63
2021/10/26 01:05:05;;;;;;;4.13;1.35;;;;;;;28.03;31.50;101682.63;4147198;28;20050;-65
2021/10/26 01:07:08;;;;;;;3.10;1.10;;;;;;;27.99;31.69;101675.78;4146728;28;20532;-70
2021/10/26 01:09:10;;;;;;;3.20;1.20;;;;;;;27.87;31.97;101649.94;4131125;28;20054;-63
2021/10/26 01:11:13;;;;;;;2.85;1.30;;;;;;;27.84;31.58;101647.50;4138037;28;20046;-59
2021/10/26 01:13:15;;;;;;;3.42;1.30;;;;;;;27.97;31.82;101676.94;4147001;28;20046;-60
2021/10/26 01:15:17;;;;;;;2.60;1.15;;;;;;;28.02;31.91;101677.34;4147050;28;20042;-68
2021/10/26 01:17:20;;;;;;;2.72;1.15;;;;;;;28.02;31.78;101677.34;4146822;28;20046;-67
2021/10/26 01:19:23;;;;;;;2.45;1.10;;;;;;;27.96;31.58;101673.41;4146857;28;20053;-67
2021/10/26 01:21:25;;;;;;;4.00;1.30;;;;;;;27.86;31.51;101657.22;4146478;28;20048;-67
2021/10/26 01:23:28;;;;;;;3.85;1.27;;;;;;;28.02;31.78;101678.22;4146869;28;20133;-61
2021/10/26 01:25:30;;;;;;;3.33;1.13;;;;;;;27.84;31.60;101648.38;4146798;28;20072;-69
2021/10/26 01:27:32;;;;;;;2.67;1.20;;;;;;;27.90;31.33;101652.34;4146553;28;20045;-70
2021/10/26 01:29:35;;;;;;;2.88;1.30;;;;;;;27.97;31.36;101667.00;4145835;28;20046;-70
2021/10/26 01:31:37;;;;;;;3.47;1.20;;;;;;;28.03;31.75;101682.63;4146548;28;20072;-67
2021/10/26 01:33:41;;;;;;;2.85;1.10;;;;;;;28.06;31.71;101686.94;4130582;28;20077;-60
2021/10/26 01:35:44;;;;;;;3.20;1.20;;;;;;;28.13;31.55;101695.28;4130540;28;20065;-59
2021/10/26 01:37:46;;;;;;;3.20;1.40;;;;;;;27.99;31.65;101678.50;4143380;28;20061;-60
2021/10/26 01:39:48;;;;;;;2.97;1.10;;;;;;;27.88;31.33;101651.66;4146600;28;20048;-60
2021/10/26 01:41:50;;;;;;;3.53;1.40;;;;;;;27.84;31.41;101653.78;4146470;28;20366;-68
2021/10/26 01:43:53;;;;;;;2.42;1.02;;;;;;;28.16;31.52;101709.38;4146543;28;20486;-66
2021/10/26 01:45:56;;;;;;;4.00;1.38;;;;;;;28.05;31.45;101685.22;4146657;28;20406;-61
2021/10/26 01:47:58;;;;;;;3.42;1.02;;;;;;;28.08;31.52;101693.03;4146315;28;20049;-65
2021/10/26 01:50:00;;;;;;;3.42;1.10;;;;;;;27.90;31.25;101661.31;4146336;28;20042;-66
2021/10/26 01:52:03;;;;;;;3.30;1.23;;;;;;;28.21;31.27;101712.50;4146278;28;20053;-61
2021/10/26 01:54:05;;;;;;;3.63;1.00;;;;;;;27.90;31.74;101658.59;4146403;28;20041;-65
2021/10/26 01:56:08;;;;;;;2.67;1.20;;;;;;;27.96;31.42;101668.00;4146390;28;20410;-64
2021/10/26 01:58:11;;;;;;;3.08;1.10;;;;;;;27.98;31.30;101671.38;4145961;28;20061;-64
2021/10/26 02:00:14;;;;;;;3.60;1.17;;;;;;;27.87;31.27;101658.88;4146324;28;20444;-67
2021/10/26 02:02:16;;;;;;;2.67;0.82;;;;;;;28.16;31.45;101712.09;4146058;28;20056;-63
2021/10/26 02:04:19;;;;;;;2.65;1.02;;;;;;;28.20;31.66;101709.94;4146082;28;20540;-62
2021/10/26 02:06:21;;;;;;;3.38;1.00;;;;;;;28.09;31.48;101683.91;4146380;28;20057;-64
2021/10/26 02:08:23;;;;;;;3.55;1.15;;;;;;;28.00;31.51;101680.22;4145962;28;20049;-62
2021/10/26 02:10:25;;;;;;;3.35;1.10;;;;;;;27.98;31.27;101674.09;4146138;28;20421;-62
2021/10/26 02:12:27;;;;;;;3.55;1.10;;;;;;;28.16;31.35;101701.25;4146110;28;20049;-65
2021/10/26 02:14:30;;;;;;;2.45;0.80;;;;;;;28.12;31.32;101694.44;4146178;28;20045;-66
2021/10/26 02:16:32;;;;;;;3.08;0.93;;;;;;;28.02;31.32;101677.34;4146155;28;20052;-67
2021/10/26 02:18:34;;;;;;;2.63;1.10;;;;;;;28.02;31.30;101674.66;4149142;28;20425;-70
2021/10/26 02:20:36;;;;;;;3.67;1.15;;;;;;;28.04;31.05;101675.38;4145856;28;20053;-68
2021/10/26 02:22:39;;;;;;;2.25;0.93;;;;;;;28.03;31.26;101676.34;4146215;28;20050;-66
2021/10/26 02:24:41;;;;;;;2.10;1.00;;;;;;;28.01;31.40;101667.53;4145635;28;20049;-63
2021/10/26 02:26:43;;;;;;;3.22;1.02;;;;;;;27.88;31.27;101654.34;4129818;28;20057;-60
2021/10/26 02:28:45;;;;;;;2.17;0.82;;;;;;;27.95;31.19;101668.13;4136784;28;20038;-66
2021/10/26 02:30:47;;;;;;;2.60;0.90;;;;;;;27.89;31.14;101647.94;4145915;28;20130;-66
2021/10/26 02:32:49;;;;;;;3.30;1.00;;;;;;;27.88;31.21;101654.34;4145976;28;20489;-60
2021/10/26 02:34:52;;;;;;;2.22;0.80;;;;;;;27.88;31.33;101657.06;4145585;28;20046;-65
2021/10/26 02:36:54;;;;;;;1.80;0.80;;;;;;;27.97;31.40;101672.41;4145792;28;20056;-59
2021/10/26 02:38:56;;;;;;;3.28;1.10;;;;;;;28.04;31.00;101680.78;4145633;28;20042;-61
2021/10/26 02:40:59;;;;;;;2.47;0.85;;;;;;;28.03;31.28;101679.06;4145404;28;20605;-66
2021/10/26 02:43:02;;;;;;;2.75;1.00;;;;;;;28.18;30.99;101703.84;4145836;28;20056;-61
2021/10/26 02:45:05;;;;;;;2.53;0.80;;;;;;;28.02;31.24;101677.34;4144244;28;20056;-60
2021/10/26 02:47:07;;;;;;;3.42;1.08;;;;;;;28.07;31.43;101687.78;4144643;28;20046;-64
2021/10/26 02:49:10;;;;;;;3.55;0.90;;;;;;;28.05;31.31;101685.22;4145516;28;20474;-66
2021/10/26 02:51:12;;;;;;;3.25;0.88;;;;;;;28.03;31.21;101684.47;4145629;28;20049;-63
2021/10/26 02:53:15;;;;;;;2.63;1.00;;;;;;;27.94;31.16;101680.78;4145692;28;20068;-63
2021/10/26 02:55:17;;;;;;;3.45;0.95;;;;;;;28.19;31.10;101721.75;4145920;28;20053;-63
2021/10/26 02:57:19;;;;;;;2.70;1.10;;;;;;;28.20;31.25;101720.75;4145738;28;20104;-60
2021/10/26 02:59:24;;;;;;;2.60;0.98;;;;;;;28.00;30.98;101684.78;4145320;28;20090;-63
2021/10/26 03:01:26;;;;;;;3.03;0.95;;;;;;;27.88;31.07;101671.41;4145853;28;20416;-60
2021/10/26 03:03:29;;;;;;;3.97;1.08;;;;;;;28.19;31.00;101722.63;4144567;28;20042;-67
2021/10/26 03:05:31;;;;;;;2.13;0.80;;;;;;;28.18;31.04;101726.31;4145380;28;20046;-66
2021/10/26 03:07:40;;;;;;;2.38;0.80;;;;;;;28.02;30.94;101688.16;4145530;28;20050;-60
2021/10/26 03:09:46;;;;;;;2.47;0.88;;;;;;;28.19;30.98;101729.88;4145324;28;20037;-59
2021/10/26 03:11:48;;;;;;;2.10;0.85;;;;;;;28.03;31.17;101706.97;4160352;28;20052;-67
2021/10/26 03:13:50;;;;;;;3.67;0.80;;;;;;;28.06;31.07;101713.97;4145572;28;20050;-63
2021/10/26 03:15:52;;;;;;;2.90;0.90;;;;;;;28.03;31.17;101708.81;4145422;28;20604;-60
2021/10/26 03:17:54;;;;;;;2.85;0.90;;;;;;;28.04;30.92;101710.53;4145419;28;20046;-62
2021/10/26 03:19:57;;;;;;;2.30;0.80;;;;;;;28.13;30.88;101725.91;4145399;28;20053;-64
2021/10/26 03:21:59;;;;;;;3.70;1.10;;;;;;;27.87;30.76;101683.22;4145310;28;20088;-67
2021/10/26 03:24:02;;;;;;;3.22;1.00;;;;;;;28.04;31.14;101708.66;4145533;28;20051;-67
2021/10/26 03:26:04;;;;;;;2.50;0.85;;;;;;;28.09;30.73;101721.78;4144932;28;20076;-60
2021/10/26 03:28:08;;;;;;;2.50;1.00;;;;;;;28.18;30.77;101736.31;4145433;28;20068;-68
2021/10/26 03:30:11;;;;;;;2.35;0.90;;;;;;;27.87;31.14;101680.50;4145237;28;20050;-64
2021/10/26 03:32:13;;;;;;;2.42;0.70;;;;;;;28.02;31.06;101704.38;4145581;28;20054;-66
2021/10/26 03:34:16;;;;;;;2.75;0.80;;;;;;;27.84;30.99;101678.13;4145506;28;20065;-68
2021/10/26 03:36:18;;;;;;;2.75;0.88;;;;;;;27.95;30.87;101689.75;4145037;28;20100;-64
2021/10/26 03:38:20;;;;;;;2.40;0.70;;;;;;;28.04;30.96;101710.53;4145287;28;20042;-63
2021/10/26 03:40:23;;;;;;;2.67;0.85;;;;;;;27.94;31.01;101688.06;4145264;28;20049;-66
2021/10/26 03:42:25;;;;;;;2.22;0.68;;;;;;;28.15;30.81;101729.31;4145119;28;20042;-62
2021/10/26 03:44:28;;;;;;;2.00;0.73;;;;;;;28.11;30.75;101724.34;4145341;28;20049;-68
2021/10/26 03:46:30;;;;;;;3.20;1.05;;;;;;;27.86;30.69;101691.47;4145068;28;20038;-69
2021/10/26 03:48:32;;;;;;;1.80;0.70;;;;;;;27.97;30.83;101717.50;4145170;28;20041;-59
2021/10/26 03:50:35;;;;;;;2.25;0.70;;;;;;;28.10;30.97;101734.31;4145316;28;20046;-66
2021/10/26 03:52:37;;;;;;;2.15;0.65;;;;;;;28.15;30.82;101744.69;4145601;28;20045;-65
2021/10/26 03:54:42;;;;;;;3.17;0.90;;;;;;;28.16;30.83;101744.53;4132142;28;20046;-70
2021/10/26 03:56:45;;;;;;;2.72;0.90;;;;;;;27.94;31.08;101707.00;4139473;28;20119;-64
2021/10/26 03:58:47;;;;;;;2.80;0.80;;;;;;;27.87;31.15;101696.72;4148022;28;20062;-65
2021/10/26 04:00:49;;;;;;;3.75;0.90;;;;;;;27.98;30.90;101714.66;4148413;28;20038;-67
2021/10/26 04:02:51;;;;;;;3.88;0.70;;;;;;;27.98;31.00;101713.81;4147924;28;20506;-68
2021/10/26 04:05:00;;;;;;;2.13;0.70;;;;;;;27.83;31.05;101691.78;4148093;28;20049;-64
2021/10/26 04:07:05;;;;;;;2.13;0.63;;;;;;;27.91;30.96;101705.41;4147841;28;20041;-68
2021/10/26 04:09:10;;;;;;;2.90;0.90;;;;;;;27.89;31.16;101705.56;4147844;28;20045;-69
2021/10/26 04:13:15;;;;;;;1.75;0.70;;;;;;;28.14;30.82;101751.09;4147695;28;20111;-60
2021/10/26 04:15:17;;;;;;;4.18;0.70;;;;;;;28.13;30.94;101752.09;4148011;28;20052;-67
2021/10/26 04:17:20;;;;;;;3.38;1.02;;;;;;;27.94;30.88;101715.94;4147761;28;20042;-63
2021/10/26 04:19:22;;;;;;;2.47;0.80;;;;;;;27.81;31.01;101702.72;4147868;28;20038;-66
2021/10/26 04:21:25;;;;;;;2.30;0.80;;;;;;;27.93;30.59;101725.06;4147857;28;20109;-63
2021/10/26 04:23:28;;;;;;;3.13;0.90;;;;;;;27.78;30.81;101703.03;4147766;28;20046;-64
2021/10/26 04:25:32;;;;;;;2.50;0.80;;;;;;;28.02;30.67;101740.41;4147780;28;20042;-60
2021/10/26 04:27:34;;;;;;;1.88;0.70;;;;;;;27.81;30.61;101700.00;4147466;28;20054;-62
2021/10/26 04:29:37;;;;;;;4.00;0.88;;;;;;;27.95;30.93;101725.75;4147667;28;20058;-65
2021/10/26 04:31:39;;;;;;;3.00;0.75;;;;;;;27.78;30.76;101703.03;4147869;28;20060;-64
2021/10/26 04:33:42;;;;;;;2.50;0.80;;;;;;;27.94;30.67;101720.50;4147628;28;20049;-68
2021/10/26 04:35:44;;;;;;;3.65;0.88;;;;;;;27.90;30.81;101728.91;4147660;28;20107;-63
2021/10/26 04:37:46;;;;;;;2.75;0.70;;;;;;;27.75;30.59;101700.59;4147518;28;20042;-71
2021/10/26 04:39:49;;;;;;;2.20;0.85;;;;;;;28.10;30.68;101761.34;4147644;28;20041;-65
2021/10/26 04:41:51;;;;;;;3.00;0.75;;;;;;;27.81;30.46;101716.22;4147580;28;20100;-67
2021/10/26 04:43:54;;;;;;;2.13;0.88;;;;;;;27.94;30.76;101742.13;4147474;28;20196;-60
2021/10/26 04:45:56;;;;;;;2.55;0.73;;;;;;;27.93;30.80;101741.28;4147578;28;20050;-60
2021/10/26 04:47:58;;;;;;;2.28;0.80;;;;;;;27.84;30.89;101728.59;4147358;28;20082;-64
2021/10/26 04:50:00;;;;;;;3.00;0.80;;;;;;;28.01;30.58;101754.06;4147450;28;20117;-67
2021/10/26 04:52:03;;;;;;;5.10;0.90;;;;;;;27.87;30.67;101734.56;4147696;28;20049;-66
2021/10/26 04:54:05;;;;;;;2.13;0.75;;;;;;;27.81;30.70;101726.22;4147323;28;20042;-62
2021/10/26 04:56:07;;;;;;;3.35;0.80;;;;;;;27.85;30.73;101728.47;4146181;28;20461;-70
2021/10/26 04:58:09;;;;;;;2.95;0.90;;;;;;;27.84;30.97;101734.00;4147117;28;20065;-66
2021/10/26 05:00:12;;;;;;;3.35;0.77;;;;;;;27.89;30.60;101739.88;4147324;28;20050;-70
2021/10/26 05:02:14;;;;;;;2.67;0.80;;;;;;;27.75;30.43;101724.91;4147335;28;20507;-66
2021/10/26 05:04:17;;;;;;;3.25;0.80;;;;;;;27.75;30.83;101719.50;4146819;28;20038;-71
2021/10/26 05:06:19;;;;;;;3.63;1.05;;;;;;;27.80;30.70;101732.59;4147384;28;20046;-68
2021/10/26 05:08:21;;;;;;;3.75;1.10;;;;;;;27.87;30.51;101739.16;4147303;28;20049;-68
2021/10/26 05:10:23;;;;;;;3.45;0.90;;;;;;;28.08;30.77;101770.59;4146828;28;20494;-69
2021/10/26 05:12:26;;;;;;;4.80;1.00;;;;;;;28.01;30.76;101767.59;4147198;28;20172;-68
2021/10/26 05:14:28;;;;;;;2.38;0.70;;;;;;;28.07;30.34;101768.91;4146943;28;20108;-62
2021/10/26 05:16:30;;;;;;;3.10;0.90;;;;;;;27.95;30.76;101752.81;4146996;28;20046;-61
2021/10/26 05:18:36;;;;;;;2.22;0.85;;;;;;;27.97;30.96;101756.22;4145948;28;20161;-61
2021/10/26 05:20:38;;;;;;;3.85;1.00;;;;;;;27.96;30.58;101761.75;4145813;28;20046;-67
2021/10/26 05:22:41;;;;;;;1.23;0.55;;;;;;;27.88;30.52;101749.81;4147072;28;20045;-60
2021/10/26 05:24:43;;;;;;;3.35;1.25;;;;;;;27.90;30.84;101749.69;4146806;28;20050;-62
2021/10/26 05:26:46;;;;;;;3.30;0.95;;;;;;;27.74;30.59;101734.91;4147040;28;20053;-62
2021/10/26 05:28:48;;;;;;;2.75;0.90;;;;;;;27.89;30.85;101762.34;4162006;28;20045;-64
2021/10/26 05:30:52;;;;;;;2.60;0.85;;;;;;;27.75;30.85;101741.13;4146404;28;20053;-66
2021/10/26 05:32:54;;;;;;;2.28;0.80;;;;;;;27.87;30.64;101758.06;4146809;28;20045;-60
2021/10/26 05:34:56;;;;;;;2.00;0.90;;;;;;;28.05;30.34;101788.81;4146644;28;20053;-64
2021/10/26 05:36:58;;;;;;;2.78;0.90;;;;;;;27.73;30.67;101738.59;4146891;28;20057;-64
2021/10/26 05:39:00;;;;;;;2.75;1.00;;;;;;;27.79;30.60;101755.22;4146838;28;20050;-61
2021/10/26 05:41:03;;;;;;;3.50;0.90;;;;;;;27.71;30.93;101734.31;4146508;28;20053;-65
2021/10/26 05:43:06;;;;;;;3.88;0.90;;;;;;;27.82;30.75;101765.75;4146583;28;20046;-60
2021/10/26 05:45:08;;;;;;;2.97;0.85;;;;;;;27.88;30.49;101771.44;4146609;28;20104;-63
2021/10/26 05:47:10;;;;;;;2.90;1.00;;;;;;;27.71;30.86;101739.72;4146780;28;20116;-59
2021/10/26 05:49:13;;;;;;;2.92;0.80;;;;;;;27.81;30.58;101764.88;4146626;28;20050;-61
2021/10/26 05:51:15;;;;;;;3.50;0.90;;;;;;;28.00;30.76;101792.94;4146186;28;20049;-59
2021/10/26 05:53:17;;;;;;;2.45;0.90;;;;;;;27.83;30.74;101767.47;4146641;28;20050;-66
2021/10/26 05:55:19;;;;;;;2.70;0.90;;;;;;;27.91;30.66;101783.81;4146480;28;20045;-68
2021/10/26 05:57:22;;;;;;;2.97;1.00;;;;;;;28.03;30.59;101800.75;4146368;28;20045;-66
2021/10/26 05:59:24;;;;;;;3.08;0.85;;;;;;;27.72;30.52;101752.25;4146106;28;20053;-62
2021/10/26 06:01:26;;;;;;;3.38;1.13;;;;;;;27.87;30.50;101791.34;4146249;28;20046;-62
2021/10/26 06:03:33;;;;;;;4.60;1.00;;;;;;;27.82;30.74;101788.22;4146336;28;20053;-60
2021/10/26 06:05:35;;;;;;;3.50;1.02;;;;;;;27.89;30.74;101802.88;4146278;28;20050;-69
2021/10/26 06:07:37;;;;;;;3.92;1.10;;;;;;;28.02;30.60;101826.94;4146169;28;20041;-59
2021/10/26 06:09:39;;;;;;;3.60;1.20;;;;;;;27.87;30.81;101799.47;4146220;28;20046;-59
2021/10/26 06:11:44;;;;;;;2.88;0.95;;;;;;;27.81;30.59;101788.38;4145772;28;20046;-64
2021/10/26 06:13:48;;;;;;;4.28;1.13;;;;;;;27.87;30.66;101802.16;4145031;28;20045;-59
2021/10/26 06:15:51;;;;;;;3.33;1.10;;;;;;;27.90;30.81;101803.75;4145421;28;20064;-70
2021/10/26 06:17:53;;;;;;;3.20;1.00;;;;;;;27.71;30.83;101775.69;4145591;28;20038;-60
2021/10/26 06:19:55;;;;;;;3.80;1.23;;;;;;;27.98;30.47;101830.06;4145231;28;20049;-60
2021/10/26 06:21:58;;;;;;;3.08;1.02;;;;;;;27.97;30.52;101821.13;4139841;28;20045;-59
2021/10/26 06:24:01;;;;;;;3.28;1.20;;;;;;;27.66;30.38;101775.28;4145766;28;20041;-60
2021/10/26 06:26:06;;;;;;;4.85;1.80;;;;;;;27.70;30.03;101790.22;4145264;28;20041;-64
2021/10/26 06:28:09;;;;;;;4.38;1.85;;;;;;;27.83;29.95;101816.13;4148323;28;20049;-61
2021/10/26 06:30:11;;;;;;;5.20;1.77;;;;;;;27.96;29.83;101842.88;4143850;28;20049;-61
2021/10/26 06:32:14;;;;;;;5.93;2.20;;;;;;;27.76;29.54;101823.09;4145798;28;20069;-59
2021/10/26 06:34:36;;;;;;;4.40;1.90;;;;;;;27.62;29.49;101808.13;4150470;28;20104;-60
2021/10/26 06:36:38;;;;;;;5.00;2.20;;;;;;;27.92;29.50;101855.81;4145167;28;20517;-60
2021/10/26 06:38:42;;;;;;;5.47;2.00;;;;;;;27.79;29.22;101839.03;4145496;28;20042;-70
2021/10/26 06:40:44;;;;;;;6.18;2.20;;;;;;;27.58;29.33;101808.44;4146595;28;20046;-65
2021/10/26 06:42:46;;;;;;;6.07;2.13;;;;;;;27.86;29.30;101859.97;4142508;28;20054;-69
2021/10/26 06:44:49;;;;;;;4.25;1.90;;;;;;;27.80;29.38;101849.69;4145158;28;20062;-62
2021/10/26 06:46:51;;;;;;;4.40;1.88;;;;;;;27.49;29.04;101808.41;4144996;28;20387;-62
2021/10/26 06:48:54;;;;;;;6.65;2.13;;;;;;;27.81;29.03;101867.63;4145127;28;20041;-65
2021/10/26 06:50:56;;;;;;;6.57;1.80;;;;;;;27.49;29.20;101819.22;4145181;28;20112;-64
2021/10/26 06:52:59;;;;;;;4.43;1.85;;;;;;;27.58;29.22;101846.25;4144911;28;20057;-63
2021/10/26 06:55:05;;;;;;;5.45;1.67;;;;;;;27.54;29.03;101852.91;4145072;28;20448;-61
2021/10/26 06:57:09;;;;;;;5.20;2.08;;;;;;;27.40;29.00;101834.34;4142832;28;20048;-68
2021/10/26 06:59:12;;;;;;;4.18;1.60;;;;;;;27.58;29.05;101870.59;4144822;28;20069;-66
2021/10/26 07:01:15;;;;;;;3.22;1.60;;;;;;;27.46;28.82;101860.00;4145260;28;20041;-62
2021/10/26 07:03:17;;;;;;;4.88;1.70;;;;;;;27.56;28.83;101883.38;4144870;28;20045;-68
2021/10/26 07:05:22;;;;;;;3.35;1.58;;;;;;;27.31;28.76;101852.25;4144988;28;20076;-64
2021/10/26 07:07:24;;;;;;;4.28;1.50;;;;;;;27.23;28.74;101854.78;4144838;28;20046;-59
2021/10/26 07:09:27;;;;;;;3.35;1.60;;;;;;;27.35;28.71;101874.44;4142515;28;20165;-62
2021/10/26 07:11:31;;;;;;;5.47;1.60;;;;;;;27.20;28.83;101855.06;4145134;28;20066;-61
2021/10/26 07:13:38;;;;;;;5.30;1.70;;;;;;;27.20;29.08;101863.16;4144853;28;20042;-61
2021/10/26 07:15:42;;;;;;;3.08;1.60;;;;;;;27.14;28.86;101863.72;4145078;28;20461;-62
2021/10/26 07:17:45;;;;;;;3.92;1.40;;;;;;;27.36;28.89;101908.56;4142238;28;20056;-59
2021/10/26 07:19:47;;;;;;;3.67;1.35;;;;;;;27.06;28.90;101858.97;4144857;28;20111;-66
2021/10/26 07:21:50;;;;;;;4.13;1.40;;;;;;;27.30;28.83;101906.44;4144908;28;20042;-66
2021/10/26 07:23:53;;;;;;;4.55;1.70;;;;;;;27.29;29.03;101915.50;4144737;28;20421;-67
2021/10/26 07:25:56;;;;;;;3.70;1.50;;;;;;;26.99;28.70;101874.88;4144799;28;20048;-62
2021/10/26 07:27:58;;;;;;;2.95;1.45;;;;;;;27.34;28.61;101929.47;4147526;28;20042;-62
2021/10/26 07:30:01;;;;;;;5.78;1.77;;;;;;;27.15;28.92;101914.03;4147847;28;20056;-59
2021/10/26 07:32:04;;;;;;;3.60;1.60;;;;;;;27.05;28.68;101906.72;4148105;28;20049;-65
2021/10/26 07:34:07;;;;;;;5.47;1.50;;;;;;;26.97;28.89;101897.59;4145407;28;20046;-68
2021/10/26 07:36:11;;;;;;;4.68;1.80;;;;;;;27.10;28.88;101928.78;4148087;28;20045;-60
2021/10/26 07:38:27;;;;;;;7.50;1.63;;;;;;;27.02;29.03;101925.88;4146576;28;20042;-60
2021/10/26 07:40:29;;;;;;;4.70;1.60;;;;;;;26.94;28.87;101920.31;4149272;28;20034;-60
2021/10/26 07:42:32;;;;;;;4.38;1.55;;;;;;;27.10;28.70;101958.50;4151599;28;20065;-60
2021/10/26 07:44:34;;;;;;;3.70;1.40;;;;;;;27.09;28.76;101961.34;4157451;28;20055;-60
2021/10/26 07:46:37;;;;;;;3.40;1.30;;;;;;;26.78;29.22;101910.84;4149697;28;20058;-65
2021/10/26 07:48:39;;;;;;;4.97;1.70;;;;;;;26.90;28.97;101929.66;4142398;28;20054;-63
2021/10/26 07:50:45;;;;;;;6.18;1.63;;;;;;;26.86;29.05;101929.06;4150273;28;20121;-59
2021/10/26 07:52:48;;;;;;;4.80;1.63;;;;;;;26.96;29.16;101953.41;4154015;28;20111;-59
2021/10/26 07:54:53;;;;;;;4.18;1.80;;;;;;;26.81;29.06;101930.47;4157463;28;20041;-63
2021/10/26 07:56:56;;;;;;;6.45;1.90;;;;;;;26.93;29.33;101961.81;4157602;28;20048;-64
2021/10/26 07:59:01;;;;;;;5.90;1.85;;;;;;;26.70;29.38;101932.19;4157241;28;20279;-66
2021/10/26 08:01:03;;;;;;;4.72;1.90;;;;;;;26.99;29.38;101982.88;4156869;28;20219;-66
2021/10/26 08:03:06;;;;;;;8.68;1.70;;;;;;;26.95;29.42;101981.41;4153895;28;20044;-65
2021/10/26 08:05:08;;;;;;;4.45;1.60;;;;;;;26.98;29.29;101983.84;4147811;28;20042;-68
2021/10/26 08:07:11;;;;;;;5.65;1.80;;;;;;;26.85;29.50;101958.91;4148105;28;20049;-67
2021/10/26 08:09:14;;;;;;;7.60;1.88;;;;;;;26.93;29.45;101978.00;4148338;28;20521;-69
2021/10/26 08:11:18;;;;;;;4.40;1.70;;;;;;;26.77;29.68;101944.22;4134226;28;20050;-66
2021/10/26 08:13:20;;;;;;;4.88;1.90;;;;;;;26.67;29.46;101931.59;4145243;28;20053;-63
2021/10/26 08:15:22;;;;;;;5.40;1.70;;;;;;;26.97;29.47;101984.00;4147484;28;20042;-66
2021/10/26 08:17:24;;;;;;;6.63;2.05;;;;;;;26.96;29.62;101982.28;4147751;28;20042;-60
2021/10/26 08:19:26;;;;;;;5.53;1.80;;;;;;;26.72;29.68;101943.72;4147840;28;20065;-64
2021/10/26 08:21:29;;;;;;;5.82;1.85;;;;;;;26.74;29.83;101939.03;4146361;28;20034;-67
2021/10/26 08:23:31;;;;;;;6.40;1.90;;;;;;;26.67;29.93;101929.75;4147761;28;20046;-67
2021/10/26 08:25:37;;;;;;;4.35;1.70;;;;;;;26.60;29.72;101920.50;4147651;28;20053;-59
2021/10/26 08:27:39;;;;;;;4.55;1.83;;;;;;;26.92;30.24;101971.72;4147799;28;20048;-66
2021/10/26 08:29:50;;;;;;;6.88;2.10;;;;;;;26.94;30.17;101974.31;4148093;28;20076;-64
2021/10/26 08:34:42;;;;;;;7.65;2.20;;;;;;;26.70;30.03;101937.59;4147859;28;20516;-63
2021/10/26 08:36:44;;;;;;;4.85;2.05;;;;;;;26.57;30.10;101920.75;4143264;28;20042;-63
2021/10/26 08:38:46;;;;;;;5.28;1.83;;;;;;;26.93;30.19;101972.59;4133669;28;20047;-61
2021/10/26 08:40:50;;;;;;;3.72;1.85;;;;;;;26.79;30.41;101946.78;4132441;28;20092;-65
2021/10/26 08:42:54;;;;;;;4.55;1.63;;;;;;;26.74;30.28;101941.72;4142071;28;20054;-59
2021/10/26 08:44:57;;;;;;;5.32;1.90;;;;;;;26.90;30.12;101962.94;4131301;28;20046;-60
2021/10/26 08:47:00;;;;;;;5.05;1.75;;;;;;;26.78;30.25;101947.75;4139319;28;20076;-58
2021/10/26 08:49:05;;;;;;;4.63;1.83;;;;;;;26.85;30.25;101953.50;4134353;28;20077;-59
2021/10/26 08:51:08;;;;;;;4.07;1.55;;;;;;;26.74;30.61;101932.78;4132312;28;20041;-58
2021/10/26 08:53:10;;;;;;;7.15;1.80;;;;;;;26.95;30.53;101970.59;4141878;28;20050;-57
2021/10/26 08:55:14;;;;;;;4.70;1.95;;;;;;;26.97;30.50;101978.59;4130984;28;20042;-59
2021/10/26 08:57:16;;;;;;;3.63;1.50;;;;;;;26.79;30.39;101952.16;4144637;28;20206;-61
2021/10/26 08:59:20;;;;;;;4.95;1.90;;;;;;;26.84;30.83;101957.19;4147129;28;20054;-65
2021/10/26 09:01:26;;;;;;;7.07;2.00;;;;;;;26.96;30.53;101983.13;4147097;28;20081;-60
2021/10/26 09:03:33;;;;;;;7.15;2.00;;;;;;;26.92;30.55;101963.63;4143947;28;20033;-64
2021/10/26 09:05:35;;;;;;;4.43;1.63;;;;;;;26.78;30.23;101939.66;4147298;28;20410;-64
2021/10/26 09:07:38;;;;;;;5.50;1.77;;;;;;;26.67;30.46;101915.41;4146830;28;20057;-60
2021/10/26 09:09:40;;;;;;;5.15;1.73;;;;;;;26.71;30.66;101930.34;4146972;28;20412;-59
2021/10/26 09:18:50;;;;;;;6.45;1.92;;;;;;;27.14;31.04;101974.44;4146253;28;20522;-62
2021/10/26 09:20:53;;;;;;;8.43;2.38;;;;;;;26.97;31.59;101954.28;4144806;28;20485;-58
2021/10/26 09:22:57;;;;;;;7.80;2.00;;;;;;;27.11;31.53;101980.97;4145772;28;20072;-57
2021/10/26 09:25:05;;;;;;;7.68;1.80;;;;;;;27.16;31.56;101981.41;4144919;28;20042;-63
2021/10/26 09:27:08;;;;;;;6.32;1.83;;;;;;;27.08;31.66;101965.00;4145200;28;20092;-57
2021/10/26 09:29:11;;;;;;;6.40;1.85;;;;;;;27.04;31.14;101936.56;4145977;28;20049;-58
2021/10/26 09:31:23;;;;;;;7.15;2.00;;;;;;;26.98;31.09;101929.84;4145329;28;20072;-60
2021/10/26 09:33:33;;;;;;;7.70;1.98;;;;;;;26.91;31.25;101912.47;4145890;28;20042;-62
2021/10/26 09:35:36;;;;;;;6.07;1.70;;;;;;;27.09;31.13;101945.13;4130661;28;20049;-60
2021/10/26 09:37:43;;;;;;;7.25;2.05;;;;;;;27.09;31.24;101934.31;4133967;28;20508;-62
2021/10/26 09:40:05;;;;;;;6.50;2.20;;;;;;;27.15;31.13;101933.78;4146260;28;20053;-58
2021/10/26 09:42:10;;;;;;;5.28;1.67;;;;;;;27.12;31.22;101930.50;4146135;28;20113;-63
2021/10/26 09:44:15;;;;;;;9.50;2.28;;;;;;;27.31;31.13;101954.06;4145897;28;20049;-58